Time;durP1;ratioP1;P1;durP2;ratioP2;P2;SDS_P1;SDS_P2;PMS_P1;PMS_P2;Temp;Humidity;BMP_temperature;BMP_pressure;BME280_temperature;BME280_humidity;BME280_pressure;Samples;Min_cycle;Max_cycle;Signal;HPM_P1;HPM_P2
2021/04/07 03:00:29;;;;;;;15.68;11.68;;;;;;;6.09;100.00;99238.52;1753087;77;21188;-62
2021/04/07 03:02:57;;;;;;;13.00;10.93;;;;;;;6.03;100.00;99235.38;1747752;80;21372;-64
2021/04/07 03:05:27;;;;;;;14.47;12.15;;;;;;;6.01;100.00;99230.36;1741401;80;21258;-64
2021/04/07 03:07:55;;;;;;;15.53;11.40;;;;;;;6.01;100.00;99232.15;1749299;80;21114;-65
2021/04/07 03:10:25;;;;;;;17.30;13.48;;;;;;;5.98;100.00;99228.12;1741458;80;21005;-64
2021/04/07 03:12:55;;;;;;;14.53;12.07;;;;;;;5.98;100.00;99226.03;1736379;80;22228;-65
2021/04/07 03:15:24;;;;;;;13.48;11.35;;;;;;;5.97;100.00;99226.53;1670992;83;22348;-64
2021/04/07 03:17:52;;;;;;;16.70;14.07;;;;;;;5.98;100.00;99228.63;1686885;82;21161;-64
2021/04/07 03:20:21;;;;;;;18.77;15.60;;;;;;;5.97;100.00;99222.65;1708565;82;21535;-63
2021/04/07 03:22:49;;;;;;;17.98;14.73;;;;;;;5.96;100.00;99218.47;1714448;82;21287;-65
2021/04/07 03:25:18;;;;;;;16.67;13.08;;;;;;;5.95;100.00;99209.11;1711977;82;21075;-64
2021/04/07 03:27:46;;;;;;;14.63;11.75;;;;;;;5.95;100.00;99209.60;1704512;82;21632;-64
2021/04/07 03:30:17;;;;;;;15.23;11.70;;;;;;;5.95;100.00;99215.58;1707151;82;21063;-64
2021/04/07 03:32:45;;;;;;;14.98;12.43;;;;;;;5.95;100.00;99209.60;1707126;82;21589;-64
2021/04/07 03:35:15;;;;;;;16.17;12.28;;;;;;;5.95;100.00;99217.36;1692552;83;21150;-64
2021/04/07 03:37:43;;;;;;;15.98;12.33;;;;;;;5.95;100.00;99204.42;1692147;83;21182;-65
2021/04/07 03:40:13;;;;;;;15.88;13.35;;;;;;;5.95;100.00;99192.30;1695420;83;21379;-65
2021/04/07 03:42:43;;;;;;;17.35;13.13;;;;;;;5.98;100.00;99202.75;1740279;80;21021;-64
2021/04/07 03:45:13;;;;;;;13.32;11.05;;;;;;;5.99;100.00;99208.27;1748673;80;21225;-65
2021/04/07 03:47:41;;;;;;;14.30;12.23;;;;;;;6.02;100.00;99211.30;1747781;80;21144;-65
2021/04/07 03:50:11;;;;;;;16.17;13.30;;;;;;;6.04;100.00;99200.26;1710917;82;21073;-66
2021/04/07 03:52:39;;;;;;;18.10;12.55;;;;;;;6.05;100.00;99201.86;1704016;82;22254;-67
2021/04/07 03:55:10;;;;;;;16.55;12.90;;;;;;;6.07;100.00;99206.88;1689147;83;21715;-67
2021/04/07 03:57:39;;;;;;;17.90;13.72;;;;;;;6.07;100.00;99196.52;1693898;83;21114;-66
2021/04/07 04:00:09;;;;;;;14.90;12.15;;;;;;;6.07;100.00;99185.68;1738159;80;21504;-65
2021/04/07 04:02:38;;;;;;;15.30;12.07;;;;;;;6.07;100.00;99186.17;1738822;80;21123;-66
2021/04/07 04:05:08;;;;;;;13.85;11.55;;;;;;;6.06;100.00;99190.55;1723761;81;21701;-66
2021/04/07 04:07:36;;;;;;;17.12;13.50;;;;;;;6.07;100.00;99181.80;1744571;80;20945;-64
2021/04/07 04:10:06;;;;;;;15.72;13.80;;;;;;;6.06;100.00;99172.44;1745536;80;21153;-65
2021/04/07 04:12:34;;;;;;;15.70;12.28;;;;;;;6.05;100.00;99172.60;1741159;80;21460;-64
2021/04/07 04:15:06;;;;;;;16.42;13.45;;;;;;;6.04;100.00;99169.22;1740184;80;21107;-64
2021/04/07 04:17:34;;;;;;;15.10;13.35;;;;;;;6.03;100.00;99166.33;1749462;80;21371;-65
2021/04/07 04:20:04;;;;;;;16.62;13.93;;;;;;;6.02;100.00;99156.97;1747123;80;21017;-65
2021/04/07 04:22:32;;;;;;;15.60;12.93;;;;;;;5.99;100.00;99141.80;1749139;80;21590;-65
2021/04/07 04:25:01;;;;;;;13.88;11.50;;;;;;;5.95;100.00;99130.22;1745060;80;21124;-65
2021/04/07 04:27:30;;;;;;;15.72;12.63;;;;;;;5.91;100.00;99140.58;1745733;80;21630;-62
2021/04/07 04:29:58;;;;;;;16.65;13.98;;;;;;;5.90;100.00;99134.28;1740703;80;21135;-64
2021/04/07 04:32:27;;;;;;;20.17;15.70;;;;;;;5.86;100.00;99123.00;1750664;80;21068;-65
2021/04/07 04:34:56;;;;;;;22.73;15.88;;;;;;;5.86;100.00;99117.03;1747979;80;21073;-66
2021/04/07 04:37:24;;;;;;;33.15;24.52;;;;;;;5.88;100.00;99115.08;1743721;80;21597;-66
2021/04/07 04:39:53;;;;;;;32.42;22.32;;;;;;;5.90;100.00;99114.88;1747360;80;21650;-64
2021/04/07 04:42:21;;;;;;;33.35;22.40;;;;;;;5.93;100.00;99118.44;1707005;82;22178;-66
2021/04/07 04:44:51;;;;;;;22.67;17.10;;;;;;;5.98;100.00;99112.22;1701202;82;21150;-66
2021/04/07 04:47:19;;;;;;;22.13;18.65;;;;;;;6.02;100.00;99109.11;1707615;82;21200;-66
2021/04/07 04:49:50;;;;;;;20.92;16.62;;;;;;;6.05;100.00;99100.97;1706763;82;21185;-62
2021/04/07 04:52:19;;;;;;;15.48;12.47;;;;;;;6.08;100.00;99086.87;1708606;82;21718;-66
2021/04/07 04:54:48;;;;;;;16.67;13.55;;;;;;;6.10;100.00;99060.34;1706304;82;21369;-65
2021/04/07 04:57:16;;;;;;;17.70;15.43;;;;;;;6.12;100.00;99043.33;1709151;82;21128;-66
2021/04/07 04:59:45;;;;;;;18.25;15.05;;;;;;;6.13;100.00;99040.55;1708725;82;21556;-66
2021/04/07 05:02:13;;;;;;;18.23;14.23;;;;;;;6.16;100.00;99041.97;1706675;81;21568;-66
2021/04/07 05:04:41;;;;;;;15.72;13.72;;;;;;;6.22;100.00;99029.61;1701486;82;21086;-66
2021/04/07 05:07:10;;;;;;;17.23;14.40;;;;;;;6.29;100.00;99027.88;1740545;80;21162;-66
2021/04/07 05:09:38;;;;;;;16.10;13.13;;;;;;;6.37;100.00;99014.02;1731429;80;21125;-65
2021/04/07 05:12:08;;;;;;;17.15;13.18;;;;;;;6.48;100.00;99019.48;1740608;80;22135;-67
2021/04/07 05:14:37;;;;;;;22.93;15.95;;;;;;;6.58;100.00;98999.73;1737668;80;21140;-65
2021/04/07 05:17:06;;;;;;;25.20;16.65;;;;;;;6.68;100.00;98996.83;1740070;80;21211;-66
2021/04/07 05:19:34;;;;;;;18.23;13.03;;;;;;;6.76;100.00;98981.94;1742392;80;21200;-64
2021/04/07 05:22:02;;;;;;;19.25;13.95;;;;;;;6.85;100.00;98994.73;1739033;80;21076;-67
2021/04/07 05:24:31;;;;;;;16.30;13.45;;;;;;;6.94;100.00;98991.02;1733841;80;21132;-67
2021/04/07 05:27:01;;;;;;;16.27;14.10;;;;;;;7.02;100.00;98985.19;1699882;82;21076;-66
2021/04/07 05:29:30;;;;;;;13.03;11.38;;;;;;;7.10;100.00;98974.36;1705829;82;21352;-66
2021/04/07 05:31:59;;;;;;;15.23;12.58;;;;;;;7.19;100.00;98980.98;1715399;82;21241;-65
2021/04/07 05:34:28;;;;;;;15.85;12.65;;;;;;;7.28;100.00;98973.36;1742695;80;21131;-66
2021/04/07 05:36:56;;;;;;;15.23;11.78;;;;;;;7.37;100.00;98962.31;1736881;80;21530;-67
2021/04/07 05:39:25;;;;;;;14.33;11.85;;;;;;;7.51;100.00;98973.84;1733964;80;21136;-67
2021/04/07 05:41:54;;;;;;;15.65;13.03;;;;;;;7.69;100.00;98962.11;1730731;81;21149;-65
2021/04/07 05:44:23;;;;;;;19.57;16.17;;;;;;;7.95;100.00;98960.86;1740326;80;21291;-67
2021/04/07 05:46:52;;;;;;;19.47;14.67;;;;;;;8.24;100.00;98948.02;1739777;81;21173;-66
2021/04/07 05:49:21;;;;;;;13.43;11.63;;;;;;;8.56;100.00;98969.03;1736965;81;21299;-66
2021/04/07 05:51:50;;;;;;;14.03;12.07;;;;;;;8.83;100.00;98962.49;1734381;80;21246;-67
2021/04/07 05:54:18;;;;;;;11.90;10.13;;;;;;;8.98;100.00;98968.25;1737943;81;21499;-66
2021/04/07 05:56:47;;;;;;;10.80;9.07;;;;;;;9.05;100.00;98966.41;1739436;81;21553;-66
2021/04/07 05:59:15;;;;;;;10.87;9.63;;;;;;;9.00;100.00;98961.83;1735627;80;21343;-66
2021/04/07 06:01:43;;;;;;;13.57;10.63;;;;;;;8.92;100.00;98959.96;1739964;80;21370;-63
2021/04/07 06:04:12;;;;;;;15.37;11.97;;;;;;;8.81;100.00;98949.69;1704500;82;21456;-67
2021/04/07 06:06:42;;;;;;;12.70;9.63;;;;;;;8.75;100.00;98952.61;1720568;80;21445;-66
2021/04/07 06:09:12;;;;;;;13.77;10.47;;;;;;;8.80;100.00;98953.80;1769913;78;21948;-67
2021/04/07 06:11:40;;;;;;;11.80;10.37;;;;;;;8.89;100.00;98954.66;1773624;78;21428;-63
2021/04/07 06:14:09;;;;;;;11.80;10.27;;;;;;;9.11;100.00;98953.11;1778804;78;21252;-67
2021/04/07 06:16:39;;;;;;;16.23;10.50;;;;;;;9.41;100.00;98946.89;1776814;78;21225;-67
2021/04/07 06:19:08;;;;;;;14.87;10.67;;;;;;;9.79;100.00;98946.09;1797718;79;21339;-68
2021/04/07 06:21:36;;;;;;;12.60;9.47;;;;;;;10.58;100.00;98927.77;1773802;80;22851;-67
2021/04/07 06:24:07;;;;;;;11.90;9.07;;;;;;;11.03;100.00;98926.20;1775863;79;21893;-67
2021/04/07 06:26:38;;;;;;;9.83;8.53;;;;;;;11.03;100.00;98926.20;1758371;80;22030;-67
2021/04/07 06:29:06;;;;;;;10.45;7.92;;;;;;;11.43;100.00;98920.77;1827936;76;21356;-66
2021/04/07 06:31:34;;;;;;;10.17;7.60;;;;;;;11.87;100.00;98906.23;1831118;76;21443;-67
2021/04/07 06:34:02;;;;;;;11.83;8.77;;;;;;;12.45;100.00;98903.37;1830196;76;21827;-68
2021/04/07 06:36:31;;;;;;;11.23;7.87;;;;;;;12.94;100.00;98892.91;1803330;76;21139;-66
2021/04/07 06:39:01;;;;;;;8.37;7.07;;;;;;;13.01;100.00;98888.86;1834333;76;21118;-66
2021/04/07 06:41:31;;;;;;;9.17;7.10;;;;;;;12.65;100.00;98894.66;1837209;76;20986;-66
2021/04/07 06:44:00;;;;;;;11.93;7.40;;;;;;;12.29;100.00;98888.67;1833419;76;21192;-68
2021/04/07 06:46:29;;;;;;;9.80;6.97;;;;;;;12.13;100.00;98895.89;1838226;76;21354;-66
2021/04/07 06:48:58;;;;;;;8.47;6.87;;;;;;;11.98;100.00;98889.00;1843515;76;21065;-66
2021/04/07 06:51:27;;;;;;;7.80;7.00;;;;;;;12.07;100.00;98880.59;1842271;76;21164;-66
2021/04/07 06:53:56;;;;;;;12.17;10.37;;;;;;;12.34;100.00;98869.69;1841572;76;21172;-67
2021/04/07 06:56:25;;;;;;;11.77;7.33;;;;;;;12.81;100.00;98861.80;1837252;76;21067;-65
2021/04/07 06:58:55;;;;;;;9.07;7.40;;;;;;;13.19;100.00;98852.58;1841875;77;21056;-67
2021/04/07 07:01:24;;;;;;;8.47;6.57;;;;;;;13.57;100.00;98834.42;1831792;76;21594;-65
2021/04/07 07:03:54;;;;;;;9.93;6.90;;;;;;;13.88;100.00;98824.42;1833492;76;21559;-66
2021/04/07 07:06:23;;;;;;;6.60;5.63;;;;;;;14.13;100.00;98822.70;1842918;75;21320;-64
2021/04/07 07:08:52;;;;;;;7.13;5.50;;;;;;;14.41;100.00;98813.88;1822732;75;21101;-65
2021/04/07 07:11:21;;;;;;;10.53;5.33;;;;;;;14.53;100.00;98813.79;1847952;77;21241;-65
2021/04/07 07:13:51;;;;;;;7.33;5.97;;;;;;;14.53;100.00;98798.84;1829982;76;21057;-63
2021/04/07 07:16:26;;;;;;;7.13;6.33;;;;;;;14.53;100.00;98801.47;1812996;76;21133;-62
2021/04/07 07:18:56;;;;;;;8.23;6.60;;;;;;;14.48;100.00;98799.29;1833687;77;21438;-65
2021/04/07 07:21:25;;;;;;;8.90;6.07;;;;;;;14.43;100.00;98796.06;1830038;76;21175;-63
2021/04/07 07:23:56;;;;;;;8.18;6.00;;;;;;;14.44;100.00;98793.73;1841435;76;21584;-62
2021/04/07 07:26:26;;;;;;;7.83;6.17;;;;;;;14.42;100.00;98787.14;1838651;76;21064;-65
2021/04/07 07:28:58;;;;;;;7.87;6.47;;;;;;;14.38;100.00;98779.49;1846133;76;20923;-63
2021/04/07 07:31:30;;;;;;;7.70;5.47;;;;;;;14.49;100.00;98769.41;1834216;76;21037;-63
2021/04/07 07:34:03;;;;;;;8.17;5.83;;;;;;;14.70;100.00;98758.63;1839211;76;21196;-64
2021/04/07 07:36:34;;;;;;;7.95;6.55;;;;;;;14.83;100.00;98758.27;1831915;76;22253;-62
2021/04/07 07:39:05;;;;;;;9.63;5.97;;;;;;;15.07;100.00;98760.84;1842247;76;22430;-61
2021/04/07 07:41:36;;;;;;;6.17;4.70;;;;;;;15.33;100.00;98755.30;1837638;76;21736;-61
2021/04/07 07:44:08;;;;;;;8.23;5.17;;;;;;;15.52;100.00;98760.16;1832163;76;21589;-62
2021/04/07 07:46:38;;;;;;;7.73;5.63;;;;;;;15.70;100.00;98744.04;1827494;76;20926;-62
2021/04/07 07:49:16;;;;;;;7.12;5.65;;;;;;;15.87;100.00;98746.49;1821072;77;21185;-63
2021/04/07 07:51:46;;;;;;;7.53;5.73;;;;;;;16.13;100.00;98750.05;1845327;76;21008;-63
2021/04/07 07:54:16;;;;;;;8.33;5.47;;;;;;;16.38;100.00;98738.07;1824368;76;20910;-63
2021/04/07 07:56:45;;;;;;;9.53;7.57;;;;;;;16.50;100.00;98737.31;1816534;76;21107;-63
2021/04/07 07:59:27;;;;;;;8.60;5.90;;;;;;;16.59;100.00;98739.69;1824824;76;21126;-62
2021/04/07 08:01:56;;;;;;;6.70;4.90;;;;;;;16.67;100.00;98732.63;1835184;76;22273;-61
2021/04/07 08:04:25;;;;;;;7.60;5.00;;;;;;;16.89;100.00;98731.62;1822815;77;21179;-62
2021/04/07 08:06:53;;;;;;;8.83;4.97;;;;;;;17.20;100.00;98720.62;1819585;77;21914;-63
2021/04/07 08:09:21;;;;;;;7.47;5.13;;;;;;;17.51;100.00;98715.58;1839483;77;21186;-63
2021/04/07 08:11:50;;;;;;;10.10;5.00;;;;;;;17.82;100.00;98706.85;1832974;77;21114;-63
2021/04/07 08:14:19;;;;;;;8.73;4.90;;;;;;;18.11;100.00;98701.22;1836006;77;21340;-63
2021/04/07 08:16:49;;;;;;;8.60;5.55;;;;;;;18.32;100.00;98695.84;1834807;77;21212;-62
2021/04/07 08:19:18;;;;;;;6.23;5.23;;;;;;;18.69;100.00;98684.27;1828121;77;21159;-63
2021/04/07 08:21:46;;;;;;;8.57;3.60;;;;;;;19.20;100.00;98684.43;1840322;76;21066;-61
2021/04/07 08:24:16;;;;;;;10.37;3.63;;;;;;;19.63;100.00;98674.80;1843967;76;20989;-62
2021/04/07 08:26:44;;;;;;;8.67;3.60;;;;;;;20.15;100.00;98667.85;1817323;77;21204;-62
2021/04/07 08:29:13;;;;;;;9.60;3.80;;;;;;;20.77;94.38;98664.36;1842519;77;20967;-63
2021/04/07 08:31:44;;;;;;;11.53;3.87;;;;;;;21.16;85.43;98660.54;1842822;76;21180;-64
2021/04/07 08:34:15;;;;;;;8.33;3.30;;;;;;;21.32;79.25;98657.86;1810997;76;20996;-64
2021/04/07 08:36:43;;;;;;;8.27;3.50;;;;;;;21.32;70.48;98644.61;1843806;76;21201;-64
2021/04/07 08:39:19;;;;;;;9.93;3.70;;;;;;;21.01;70.69;98645.14;1838435;76;21363;-62
2021/04/07 08:41:47;;;;;;;9.17;3.87;;;;;;;20.59;74.41;98638.15;1843835;77;21170;-63
2021/04/07 08:44:18;;;;;;;8.53;3.20;;;;;;;20.29;79.33;98645.96;1837435;77;21193;-64
2021/04/07 08:46:53;;;;;;;7.50;3.10;;;;;;;20.16;81.89;98632.38;1826277;76;21118;-63
2021/04/07 08:49:41;;;;;;;8.73;3.17;;;;;;;20.33;82.02;98629.77;1835805;76;20998;-63
2021/04/07 08:52:20;;;;;;;8.43;3.27;;;;;;;20.71;76.43;98622.59;1841709;76;21178;-63
2021/04/07 08:54:58;;;;;;;8.37;3.43;;;;;;;21.15;72.18;98616.04;1835407;76;21577;-65
2021/04/07 08:57:34;;;;;;;9.27;3.40;;;;;;;21.48;63.30;98615.47;1837993;76;21001;-64
2021/04/07 09:00:15;;;;;;;9.53;3.60;;;;;;;21.34;59.41;98613.34;1837078;76;21137;-64
2021/04/07 09:02:52;;;;;;;9.17;4.27;;;;;;;20.94;63.42;98615.59;1842013;76;21188;-63
2021/04/07 09:05:42;;;;;;;8.47;3.20;;;;;;;20.70;65.64;98613.63;1841817;76;21555;-64
2021/04/07 09:08:11;;;;;;;11.13;3.60;;;;;;;20.49;67.67;98615.25;1835268;77;21627;-65
2021/04/07 09:10:45;;;;;;;9.57;4.30;;;;;;;20.56;72.86;98614.35;1832215;76;21004;-64
2021/04/07 09:13:20;;;;;;;6.73;3.10;;;;;;;20.98;71.07;98603.88;1834066;77;21130;-66
2021/04/07 09:16:04;;;;;;;8.80;4.07;;;;;;;21.37;67.51;98599.51;1839143;77;21559;-65
2021/04/07 09:18:53;;;;;;;6.77;3.57;;;;;;;21.70;64.72;98595.40;1839642;76;20916;-65
2021/04/07 09:21:22;;;;;;;7.80;3.23;;;;;;;21.86;65.35;98588.17;1727907;80;21166;-66
2021/04/07 09:23:54;;;;;;;8.25;3.52;;;;;;;22.11;60.01;98580.73;1735857;80;21134;-68
2021/04/07 09:26:25;;;;;;;11.68;4.42;;;;;;;22.16;59.74;98578.53;1740567;80;21572;-67
2021/04/07 09:28:54;;;;;;;;;;;;;;;22.27;59.12;98581.19;1681007;84;21243;-65
2021/04/07 09:31:29;;;;;;;11.43;3.83;;;;;;;22.36;55.57;98574.64;1734707;80;21189;-68
2021/04/07 09:33:57;;;;;;;11.10;3.93;;;;;;;22.29;55.04;98571.07;1739574;80;21222;-64
2021/04/07 09:36:38;;;;;;;9.07;3.70;;;;;;;22.07;53.74;98563.29;1746297;80;21106;-65
2021/04/07 09:39:10;;;;;;;12.03;4.33;;;;;;;21.78;56.39;98565.01;1745733;80;21093;-61
2021/04/07 09:41:44;;;;;;;10.00;3.60;;;;;;;21.65;58.31;98564.48;1746676;80;21141;-65
2021/04/07 09:44:14;;;;;;;11.97;4.30;;;;;;;21.66;57.67;98560.73;1746678;80;21207;-65
2021/04/07 09:46:51;;;;;;;11.53;4.67;;;;;;;21.77;58.08;98559.98;1745997;80;21158;-63
2021/04/07 09:49:19;;;;;;;12.20;4.10;;;;;;;21.89;55.87;98560.24;1751029;80;21168;-62
2021/04/07 09:51:49;;;;;;;13.30;4.20;;;;;;;21.90;53.92;98557.86;1744010;81;21150;-64
2021/04/07 09:54:26;;;;;;;10.97;5.07;;;;;;;21.82;55.21;98554.56;1745415;80;21669;-64
2021/04/07 09:57:10;;;;;;;11.30;4.07;;;;;;;21.89;54.96;98565.55;1743074;80;21150;-63
2021/04/07 09:59:49;;;;;;;9.07;3.90;;;;;;;21.82;55.85;98546.60;1743690;80;21180;-62
2021/04/07 10:02:26;;;;;;;9.87;4.63;;;;;;;21.71;55.32;98545.28;1746478;80;21522;-64
2021/04/07 10:04:56;;;;;;;12.77;5.10;;;;;;;21.56;56.40;98547.70;1732299;80;21132;-64
2021/04/07 10:07:42;;;;;;;10.43;4.60;;;;;;;21.63;57.85;98541.47;1622012;87;21185;-64
2021/04/07 10:10:12;;;;;;;9.90;3.73;;;;;;;21.86;54.69;98535.12;1628877;87;21069;-64
2021/04/07 10:12:40;;;;;;;10.70;3.97;;;;;;;22.06;54.52;98536.52;1622711;87;21680;-65
2021/04/07 10:15:13;;;;;;;12.70;5.47;;;;;;;22.22;53.10;98526.36;1625767;87;21164;-64
2021/04/07 10:17:41;;;;;;;11.88;4.90;;;;;;;22.30;52.54;98530.16;1612197;87;21213;-64
2021/04/07 10:20:13;;;;;;;12.13;4.83;;;;;;;22.31;51.15;98541.02;1634887;87;21242;-64
2021/04/07 10:22:43;;;;;;;8.35;4.15;;;;;;;22.06;51.81;98537.85;1634082;87;21412;-64
2021/04/07 10:25:14;;;;;;;13.22;4.53;;;;;;;21.68;53.80;98544.00;1636723;87;21706;-64
2021/04/07 10:27:44;;;;;;;11.70;4.65;;;;;;;21.42;55.44;98549.58;1632963;87;21170;-65
2021/04/07 10:30:40;;;;;;;12.27;5.20;;;;;;;21.10;56.62;98544.58;1635493;86;21294;-65
2021/04/07 10:33:09;;;;;;;12.03;4.47;;;;;;;20.81;58.47;98555.45;1732784;80;21084;-62
2021/04/07 10:35:40;;;;;;;11.10;4.77;;;;;;;20.53;60.35;98558.05;1731430;80;22269;-61
2021/04/07 10:38:12;;;;;;;11.83;4.57;;;;;;;20.37;62.96;98558.77;1737052;80;21056;-63
2021/04/07 10:40:45;;;;;;;13.07;5.27;;;;;;;20.29;63.90;98558.10;1741078;82;21464;-63
2021/04/07 10:43:19;;;;;;;11.37;5.20;;;;;;;20.22;63.87;98564.83;1742451;80;21152;-63
2021/04/07 10:46:04;;;;;;;13.63;4.67;;;;;;;20.16;66.23;98555.66;1731513;80;21558;-65
2021/04/07 10:48:35;;;;;;;11.30;4.43;;;;;;;20.29;66.23;98542.77;1678054;83;21381;-63
2021/04/07 10:51:29;;;;;;;10.50;4.90;;;;;;;20.47;65.60;98547.25;1704988;82;21184;-65
2021/04/07 10:53:59;;;;;;;9.60;4.30;;;;;;;20.52;64.69;98549.83;1677329;84;21586;-65
2021/04/07 10:56:28;;;;;;;12.33;4.63;;;;;;;20.43;65.66;98560.81;1701743;82;21162;-66
2021/04/07 10:59:01;;;;;;;11.68;4.30;;;;;;;20.28;66.04;98551.79;1716738;82;21188;-67
2021/04/07 11:01:32;;;;;;;14.40;4.30;;;;;;;20.30;67.33;98545.66;1710561;83;22098;-67
2021/04/07 11:04:15;;;;;;;18.47;5.00;;;;;;;20.39;65.62;98551.88;1669924;84;21195;-65
2021/04/07 11:06:43;;;;;;;9.97;3.80;;;;;;;20.32;65.34;98545.63;1669403;84;21517;-66
2021/04/07 11:09:12;;;;;;;15.10;4.90;;;;;;;20.10;66.60;98538.82;1708706;83;21807;-65
2021/04/07 11:11:41;;;;;;;12.80;4.50;;;;;;;19.88;69.01;98542.03;1716811;82;21116;-66
2021/04/07 11:14:11;;;;;;;14.57;4.20;;;;;;;19.65;70.78;98548.41;1712605;83;21430;-66
2021/04/07 11:16:41;;;;;;;13.03;3.60;;;;;;;19.48;73.29;98532.23;1724865;81;21013;-67
2021/04/07 11:19:16;;;;;;;15.17;4.87;;;;;;;19.32;77.65;98525.03;1724129;81;21262;-67
2021/04/07 11:21:44;;;;;;;12.97;5.20;;;;;;;19.23;78.78;98522.74;1719714;83;21227;-68
2021/04/07 11:24:14;;;;;;;11.08;4.37;;;;;;;19.16;81.60;98517.79;1712304;82;21435;-68
2021/04/07 11:26:44;;;;;;;14.10;4.40;;;;;;;19.14;82.88;98515.98;1714143;82;22038;-66
2021/04/07 11:29:14;;;;;;;9.00;3.80;;;;;;;19.09;82.18;98530.57;1684976;82;23772;-66
2021/04/07 11:31:42;;;;;;;12.30;4.77;;;;;;;19.01;84.02;98531.16;1687230;83;21078;-67
2021/04/07 11:34:13;;;;;;;13.40;5.10;;;;;;;18.96;86.62;98526.73;1688659;84;21184;-67
2021/04/07 11:39:22;;;;;;;12.60;6.90;;;;;;;19.04;87.92;98525.33;1700155;82;21327;-67
2021/04/07 11:42:01;;;;;;;14.00;6.60;;;;;;;19.04;88.39;98521.91;1684612;84;21592;-66
2021/04/07 11:46:48;;;;;;;10.77;5.10;;;;;;;19.01;89.45;98508.72;1723241;81;21667;-67
2021/04/07 11:49:17;;;;;;;12.70;5.40;;;;;;;19.07;90.39;98501.00;1683593;83;21119;-68
2021/04/07 11:51:45;;;;;;;12.87;4.70;;;;;;;19.16;88.72;98499.84;1669005;82;21221;-68
2021/04/07 11:54:13;;;;;;;14.17;5.13;;;;;;;19.25;86.72;98497.38;1750127;81;21159;-67
2021/04/07 11:56:45;;;;;;;12.53;4.83;;;;;;;19.33;87.93;98494.89;1746546;81;21187;-68
2021/04/07 11:59:15;;;;;;;14.17;5.93;;;;;;;19.46;83.36;98492.08;1745279;81;21247;-67
2021/04/07 12:01:45;;;;;;;13.40;4.87;;;;;;;19.50;80.90;98497.04;1720027;81;21573;-66
2021/04/07 12:04:14;;;;;;;12.83;5.47;;;;;;;19.44;82.51;98496.33;1740520;81;22284;-66
2021/04/07 12:06:43;;;;;;;16.80;5.17;;;;;;;19.34;83.97;98493.03;1733188;81;21194;-66
2021/04/07 12:09:12;;;;;;;11.57;4.70;;;;;;;19.16;83.92;98491.37;1744337;81;21688;-66
2021/04/07 12:11:40;;;;;;;13.70;4.00;;;;;;;18.96;86.53;98487.13;1722551;81;21049;-65
2021/04/07 12:14:09;;;;;;;12.90;5.03;;;;;;;18.80;87.14;98487.03;1726537;81;21377;-66
2021/04/07 12:16:38;;;;;;;13.80;5.10;;;;;;;18.65;89.79;98483.98;1739646;81;21323;-66
2021/04/07 12:19:09;;;;;;;15.00;5.27;;;;;;;18.55;91.58;98482.75;1749168;81;21486;-65
2021/04/07 12:21:38;;;;;;;12.33;5.03;;;;;;;18.46;93.73;98479.94;1746325;81;21159;-66
2021/04/07 12:24:08;;;;;;;14.73;4.83;;;;;;;18.39;93.81;98468.92;1746443;81;21156;-65
2021/04/07 12:26:36;;;;;;;18.90;6.20;;;;;;;18.34;96.23;98482.70;1742291;81;21080;-66
2021/04/07 12:29:05;;;;;;;16.47;4.60;;;;;;;18.31;97.76;98477.44;1746843;81;22037;-66
2021/04/07 12:31:34;;;;;;;19.73;6.53;;;;;;;18.31;95.65;98480.61;1746919;81;21135;-65
2021/04/07 12:34:03;;;;;;;16.10;6.30;;;;;;;18.26;93.46;98478.00;1718268;81;21222;-65
2021/04/07 12:36:33;;;;;;;15.30;4.67;;;;;;;18.16;94.36;98486.26;1743678;81;21128;-66
2021/04/07 12:39:02;;;;;;;16.93;5.07;;;;;;;18.07;93.60;98480.02;1748184;81;21128;-65
2021/04/07 12:44:00;;;;;;;14.07;6.10;;;;;;;17.78;100.00;98508.14;1747372;81;21140;-66
2021/04/07 12:46:31;;;;;;;11.93;5.60;;;;;;;17.42;100.00;98524.08;1748479;81;21220;-66
2021/04/07 12:49:09;;;;;;;13.93;6.03;;;;;;;17.09;100.00;98517.64;1707036;80;21074;-66
2021/04/07 12:51:38;;;;;;;11.73;5.00;;;;;;;16.77;100.00;98529.27;1699971;81;21390;-67
2021/04/07 12:54:08;;;;;;;10.20;4.90;;;;;;;16.46;100.00;98535.84;1700211;81;22123;-67
2021/04/07 12:56:36;;;;;;;13.43;6.47;;;;;;;16.17;100.00;98548.69;1700703;81;21665;-66
2021/04/07 12:59:06;;;;;;;13.87;6.67;;;;;;;15.92;100.00;98556.55;1707676;81;21146;-66
2021/04/07 13:01:34;;;;;;;13.07;6.30;;;;;;;15.69;100.00;98555.96;1701074;81;21007;-66
2021/04/07 13:04:04;;;;;;;13.60;6.27;;;;;;;15.47;100.00;98560.57;1713955;81;21603;-66
2021/04/07 13:06:32;;;;;;;14.13;6.20;;;;;;;15.25;100.00;98557.57;1709026;81;22107;-67
2021/04/07 13:09:00;;;;;;;14.07;7.13;;;;;;;15.06;100.00;98576.09;1717866;81;21603;-66
2021/04/07 13:11:30;;;;;;;13.10;7.00;;;;;;;14.87;100.00;98578.86;1717122;81;21039;-69
2021/04/07 13:13:58;;;;;;;13.23;6.47;;;;;;;14.70;100.00;98577.67;1723699;81;21234;-65
2021/04/07 13:16:28;;;;;;;13.93;6.60;;;;;;;14.55;100.00;98567.87;1719280;81;21157;-68
2021/04/07 13:19:00;;;;;;;13.47;6.53;;;;;;;14.42;100.00;98586.07;1714782;81;21193;-65
2021/04/07 13:21:32;;;;;;;13.83;6.90;;;;;;;14.32;100.00;98586.00;1704217;81;21098;-67
2021/04/07 13:24:01;;;;;;;15.23;8.07;;;;;;;14.21;100.00;98595.59;1707697;81;21085;-66
2021/04/07 13:26:29;;;;;;;17.53;7.87;;;;;;;14.13;100.00;98602.58;1717513;81;21228;-66
2021/04/07 13:28:59;;;;;;;12.77;8.30;;;;;;;14.06;100.00;98602.77;1707673;81;21579;-66
2021/04/07 13:31:27;;;;;;;13.33;7.90;;;;;;;13.99;100.00;98612.64;1712957;81;22135;-66
2021/04/07 13:34:00;;;;;;;10.93;7.77;;;;;;;13.99;100.00;98619.72;1718044;81;21411;-65
2021/04/07 13:36:37;;;;;;;13.10;7.10;;;;;;;13.99;100.00;98613.16;1709990;81;21069;-65
2021/04/07 13:39:20;;;;;;;14.07;8.03;;;;;;;14.04;100.00;98619.77;1714799;81;21113;-66
2021/04/07 13:44:05;;;;;;;15.27;8.60;;;;;;;14.09;100.00;98627.17;1718486;81;21186;-66
2021/04/07 13:46:47;;;;;;;13.47;8.17;;;;;;;14.07;100.00;98629.23;1670497;85;21132;-65
2021/04/07 13:49:16;;;;;;;11.37;7.87;;;;;;;14.11;100.00;98634.78;1664205;85;21182;-65
2021/04/07 13:51:45;;;;;;;15.10;7.77;;;;;;;14.18;100.00;98628.83;1664450;86;21254;-65
2021/04/07 13:54:14;;;;;;;18.00;9.07;;;;;;;14.30;100.00;98631.31;1661333;85;21214;-65
2021/04/07 13:57:02;;;;;;;16.93;7.70;;;;;;;14.48;100.00;98638.05;1663735;86;22556;-65
2021/04/07 13:59:15;;;;;;;12.30;7.60;;;;;;;14.66;100.00;98643.47;1662505;85;21175;-66
2021/04/07 14:01:44;;;;;;;10.67;7.67;;;;;;;14.80;100.00;98648.58;1667685;85;21735;-66
2021/04/07 14:04:13;;;;;;;10.93;7.30;;;;;;;14.83;100.00;98659.36;1663947;84;21207;-66
2021/04/07 14:06:42;;;;;;;10.63;7.67;;;;;;;14.81;100.00;98661.95;1664727;84;21202;-65
2021/04/07 14:09:13;;;;;;;14.20;7.70;;;;;;;14.76;100.00;98670.58;1664814;84;21181;-66
2021/04/07 14:11:42;;;;;;;14.50;8.10;;;;;;;14.68;100.00;98673.66;1729329;81;21157;-65
2021/04/07 14:14:10;;;;;;;13.73;7.23;;;;;;;14.59;100.00;98676.47;1748955;81;21132;-66
2021/04/07 14:16:40;;;;;;;14.67;7.73;;;;;;;14.52;100.00;98678.48;1750503;81;21602;-65
2021/04/07 14:19:10;;;;;;;15.60;8.63;;;;;;;14.48;100.00;98690.48;1753019;80;21061;-68
2021/04/07 14:21:39;;;;;;;12.30;7.93;;;;;;;14.41;100.00;98701.67;1753978;80;23460;-67
2021/04/07 14:24:09;;;;;;;13.60;6.77;;;;;;;14.32;100.00;98699.49;1750981;81;21198;-65
2021/04/07 14:26:38;;;;;;;14.03;7.70;;;;;;;14.26;100.00;98701.77;1749276;81;21061;-65
2021/04/07 14:29:06;;;;;;;16.80;7.40;;;;;;;14.22;100.00;98707.23;1749267;81;21180;-65
2021/04/07 14:31:35;;;;;;;14.07;8.33;;;;;;;14.18;100.00;98717.14;1756170;80;21161;-65
2021/04/07 14:34:04;;;;;;;10.37;6.97;;;;;;;14.17;100.00;98715.53;1754010;80;21427;-66
2021/04/07 14:36:33;;;;;;;13.07;7.40;;;;;;;14.16;100.00;98727.84;1751652;80;21078;-65
2021/04/07 14:39:05;;;;;;;13.77;8.17;;;;;;;14.17;100.00;98729.45;1750427;81;21165;-66
2021/04/07 14:41:35;;;;;;;16.77;8.13;;;;;;;14.16;100.00;98719.98;1752217;81;21135;-65
2021/04/07 14:44:06;;;;;;;12.95;8.28;;;;;;;14.15;100.00;98733.34;1742434;80;21037;-67
2021/04/07 14:46:34;;;;;;;12.33;7.43;;;;;;;14.12;100.00;98733.30;1749382;80;21211;-66